createdAt,value
2022-07-29T00:01:22.057Z,99147.84
2022-07-29T00:03:50.276Z,99148.63
2022-07-29T00:06:18.879Z,99142.34
2022-07-29T00:08:46.968Z,99148.66
2022-07-29T00:11:15.229Z,99140.41
2022-07-29T00:13:50.543Z,99147.50
2022-07-29T00:16:19.288Z,99150.28
2022-07-29T00:18:47.514Z,99138.09
2022-07-29T00:21:15.733Z,99143.63
2022-07-29T00:23:44.017Z,99138.91
2022-07-29T00:26:12.123Z,99137.75
2022-07-29T00:28:40.223Z,99118.88
2022-07-29T00:31:10.203Z,99124.03
2022-07-29T00:33:39.604Z,99120.53
2022-07-29T00:36:07.286Z,99122.50
2022-07-29T00:38:35.430Z,99119.38
2022-07-29T00:41:03.628Z,99119.75
2022-07-29T00:43:31.650Z,99120.16
2022-07-29T00:45:59.810Z,99116.25
2022-07-29T00:48:29.322Z,99121.78
2022-07-29T00:50:59.711Z,99106.41
2022-07-29T00:53:28.557Z,99111.91
2022-07-29T00:55:56.830Z,99108.38
2022-07-29T00:58:25.634Z,99111.13
2022-07-29T01:00:54.499Z,99112.31
2022-07-29T01:03:22.599Z,99115.84
2022-07-29T01:05:52.658Z,99110.34
2022-07-29T01:08:22.421Z,99098.16
2022-07-29T01:10:51.483Z,99096.19
2022-07-29T01:13:20.445Z,99093.06
2022-07-29T01:15:56.862Z,99094.63
2022-07-29T01:18:30.774Z,99089.94
2022-07-29T01:21:20.555Z,99083.25
2022-07-29T01:24:17.036Z,99091.09
2022-07-29T01:26:49.136Z,99086.38
2022-07-29T01:29:26.263Z,99084.03
2022-07-29T01:32:03.447Z,99089.16
2022-07-29T01:34:42.541Z,99084.03
2022-07-29T01:37:17.675Z,99093.06
2022-07-29T01:39:48.181Z,99089.13
2022-07-29T01:42:23.126Z,99091.06
2022-07-29T01:44:58.068Z,99109.88
2022-07-29T01:47:33.816Z,99098.91
2022-07-29T01:50:09.402Z,99096.16
2022-07-29T01:52:44.680Z,99091.81
2022-07-29T01:55:17.185Z,99094.16
2022-07-29T01:57:47.906Z,99088.66
2022-07-29T02:00:18.986Z,99082.78
2022-07-29T02:02:49.747Z,99084.75
2022-07-29T02:05:21.235Z,99085.13
2022-07-29T02:07:51.664Z,99078.84
2022-07-29T02:10:25.770Z,99076.88
2022-07-29T02:12:56.449Z,99074.91
2022-07-29T02:15:28.743Z,99071.00
2022-07-29T02:18:00.534Z,99074.91
2022-07-29T02:20:30.017Z,99077.28
2022-07-29T02:22:59.529Z,99076.47
2022-07-29T02:25:36.922Z,99073.34
2022-07-29T02:28:07.451Z,99069.38
2022-07-29T02:30:41.307Z,99069.38
2022-07-29T02:33:10.822Z,99075.66
2022-07-29T02:35:40.788Z,99076.84
2022-07-29T02:38:28.917Z,99076.06
2022-07-29T02:40:59.051Z,99065.84
2022-07-29T02:43:27.907Z,99072.91
2022-07-29T02:45:58.720Z,99075.66
2022-07-29T02:48:34.473Z,99078.38
2022-07-29T02:51:09.239Z,99081.88
2022-07-29T02:53:42.216Z,99090.91
2022-07-29T02:56:15.434Z,99091.69
2022-07-29T02:58:48.397Z,99082.25
2022-07-29T03:01:23.718Z,99085.72
2022-07-29T03:03:55.163Z,99080.22
2022-07-29T03:06:28.481Z,99074.72
2022-07-29T03:09:12.265Z,99080.22
2022-07-29T03:11:46.360Z,99082.97
2022-07-29T03:14:21.201Z,99093.19
2022-07-29T03:16:53.055Z,99097.91
2022-07-29T03:19:22.592Z,99106.97
2022-07-29T03:21:50.675Z,99106.16
2022-07-29T03:24:29.329Z,99117.56
2022-07-29T03:26:58.302Z,99111.28
2022-07-29T03:29:33.935Z,99110.50
2022-07-29T03:32:07.977Z,99117.19
2022-07-29T03:34:37.256Z,99123.09
2022-07-29T03:37:05.306Z,99113.28
2022-07-29T03:39:37.335Z,99120.34
2022-07-29T03:42:08.898Z,99119.56
2022-07-29T03:44:38.419Z,99122.72
2022-07-29T03:47:10.425Z,99134.13
2022-07-29T03:49:39.863Z,99133.72
2022-07-29T03:52:08.195Z,99144.31
2022-07-29T03:54:36.367Z,99148.59
2022-07-29T03:57:07.843Z,99143.88
2022-07-29T03:59:36.886Z,99142.28
2022-07-29T04:02:06.487Z,99134.03
2022-07-29T04:04:37.268Z,99134.03
2022-07-29T04:07:05.819Z,99138.38
2022-07-29T04:09:33.975Z,99138.03
2022-07-29T04:12:04.307Z,99140.41
2022-07-29T04:14:33.788Z,99145.91
2022-07-29T04:17:01.909Z,99137.63
2022-07-29T04:19:32.585Z,99144.28
2022-07-29T04:22:03.562Z,99136.41
2022-07-29T04:24:31.726Z,99138.38
2022-07-29T04:26:59.781Z,99136.47
2022-07-29T04:29:27.795Z,99133.72
2022-07-29T04:31:55.818Z,99134.56
2022-07-29T04:34:28.270Z,99138.53
2022-07-29T04:36:56.636Z,99135.88
2022-07-29T04:39:27.245Z,99137.06
2022-07-29T04:41:58.530Z,99137.47
2022-07-29T04:44:28.464Z,99140.63
2022-07-29T04:46:57.185Z,99133.94
2022-07-29T04:49:25.629Z,99138.25
2022-07-29T04:51:53.835Z,99140.19
2022-07-29T04:54:22.033Z,99128.38
2022-07-29T04:56:51.758Z,99133.44
2022-07-29T04:59:19.811Z,99123.16
2022-07-29T05:01:48.016Z,99128.63
2022-07-29T05:04:16.452Z,99139.97
2022-07-29T05:06:44.758Z,99143.03
2022-07-29T05:09:12.856Z,99138.59
2022-07-29T05:11:40.868Z,99145.63
2022-07-29T05:14:10.421Z,99145.13
2022-07-29T05:16:40.138Z,99159.53
2022-07-29T05:19:13.648Z,99156.63
2022-07-29T05:21:42.399Z,99157.69
2022-07-29T05:24:10.627Z,99158.75
2022-07-29T05:26:38.735Z,99156.59
2022-07-29T05:29:06.805Z,99149.75
2022-07-29T05:31:36.271Z,99144.09
2022-07-29T05:34:04.320Z,99144.66
2022-07-29T05:36:32.378Z,99146.72
2022-07-29T05:39:00.456Z,99159.94
2022-07-29T05:41:28.857Z,99149.50
2022-07-29T05:43:56.888Z,99149.38
2022-07-29T05:46:25.330Z,99149.25
2022-07-29T05:48:54.947Z,99146.69
2022-07-29T05:51:23.044Z,99138.63
2022-07-29T05:53:50.997Z,99141.75
2022-07-29T05:56:18.940Z,99127.94
2022-07-29T05:58:47.062Z,99134.16
2022-07-29T06:01:15.168Z,99136.00
2022-07-29T06:03:44.207Z,99141.50
2022-07-29T06:06:14.273Z,99133.13
2022-07-29T06:08:42.404Z,99123.88
2022-07-29T06:11:10.684Z,99116.31
2022-07-29T06:13:38.857Z,99121.13
2022-07-29T06:16:07.291Z,99123.00
2022-07-29T06:18:35.467Z,99133.28
2022-07-29T06:21:03.527Z,99127.72
2022-07-29T06:23:33.089Z,99126.44
2022-07-29T06:26:01.169Z,99120.91
2022-07-29T06:28:29.178Z,99131.13
2022-07-29T06:30:57.328Z,99126.53
2022-07-29T06:33:25.437Z,99118.41
2022-07-29T06:35:55.118Z,99122.03
2022-07-29T06:38:34.154Z,99120.75
2022-07-29T06:41:13.351Z,99119.06
2022-07-29T06:43:50.546Z,99123.91
2022-07-29T06:46:21.933Z,99115.34
2022-07-29T06:48:50.879Z,99115.72
2022-07-29T06:51:22.367Z,99117.78
2022-07-29T06:54:00.441Z,99112.16
2022-07-29T06:56:38.278Z,99115.50
2022-07-29T06:59:08.135Z,99108.53
2022-07-29T07:01:37.033Z,99105.34
2022-07-29T07:04:05.283Z,99106.16
2022-07-29T07:06:33.439Z,99111.84
2022-07-29T07:09:01.552Z,99101.75
2022-07-29T07:11:29.686Z,99102.13
2022-07-29T07:14:03.130Z,99107.09
2022-07-29T07:16:32.691Z,99104.06
2022-07-29T07:19:00.948Z,99100.47
2022-07-29T07:21:30.678Z,99105.25
2022-07-29T07:23:59.647Z,99098.81
2022-07-29T07:26:28.135Z,99104.97
2022-07-29T07:28:56.285Z,99100.59
2022-07-29T07:31:25.799Z,99106.69
2022-07-29T07:33:54.493Z,99105.03
2022-07-29T07:36:25.779Z,99099.47
2022-07-29T07:38:53.877Z,99110.44
2022-07-29T07:41:23.367Z,99099.47
2022-07-29T07:43:51.329Z,99097.06
2022-07-29T07:46:19.509Z,99098.47
2022-07-29T07:48:49.033Z,99094.28
2022-07-29T07:51:17.164Z,99102.88
2022-07-29T07:53:45.803Z,99095.31
2022-07-29T07:56:13.870Z,99097.66
2022-07-29T07:58:41.967Z,99097.91
2022-07-29T08:01:10.202Z,99099.16
2022-07-29T08:03:38.641Z,99102.25
2022-07-29T08:06:08.382Z,99104.44
2022-07-29T08:08:36.514Z,99096.38
2022-07-29T08:11:08.963Z,99096.66
2022-07-29T08:13:40.594Z,99103.19
2022-07-29T08:16:16.293Z,99096.97
2022-07-29T08:18:47.133Z,99099.19
2022-07-29T08:21:17.387Z,99096.66
2022-07-29T08:23:57.987Z,99097.28
2022-07-29T08:26:28.018Z,99100.44
2022-07-29T08:28:56.075Z,99099.25
2022-07-29T08:31:24.312Z,99102.84
2022-07-29T08:33:52.349Z,99099.44
2022-07-29T08:36:23.128Z,99102.69
2022-07-29T08:38:51.961Z,99095.78
2022-07-29T08:41:20.453Z,99100.44
2022-07-29T08:43:49.030Z,99096.88
2022-07-29T08:46:18.463Z,99091.78
2022-07-29T08:48:47.087Z,99094.78
2022-07-29T08:51:16.807Z,99087.06
2022-07-29T08:53:49.478Z,99083.03
2022-07-29T08:56:19.149Z,99075.88
2022-07-29T08:58:51.629Z,99074.00
2022-07-29T09:01:35.034Z,99080.72
2022-07-29T09:04:06.692Z,99075.31
2022-07-29T09:06:39.089Z,99076.53
2022-07-29T09:09:09.902Z,99074.22
2022-07-29T09:11:38.309Z,99078.41
2022-07-29T09:14:06.795Z,99067.41
2022-07-29T09:16:53.492Z,99067.72
2022-07-29T09:19:30.793Z,99056.97
2022-07-29T09:22:00.596Z,99057.91
2022-07-29T09:24:44.665Z,99051.06
2022-07-29T09:27:21.991Z,99053.41
2022-07-29T09:29:58.493Z,99055.09
2022-07-29T09:32:27.258Z,99043.72
2022-07-29T09:35:16.429Z,99047.25
2022-07-29T09:37:44.812Z,99049.22
2022-07-29T09:40:17.982Z,99044.50
2022-07-29T09:42:46.914Z,99048.34
2022-07-29T09:45:15.642Z,99038.59
2022-07-29T09:47:48.013Z,99029.25
2022-07-29T09:50:16.191Z,99024.84
2022-07-29T09:52:48.743Z,99018.91
2022-07-29T09:55:19.941Z,99020.41
2022-07-29T09:57:48.732Z,99021.06
2022-07-29T10:00:18.867Z,99018.94
2022-07-29T10:02:48.343Z,99019.31
2022-07-29T10:05:22.143Z,99018.81
2022-07-29T10:07:54.160Z,99017.41
2022-07-29T10:10:26.387Z,99013.38
2022-07-29T10:12:57.048Z,99012.38
2022-07-29T10:15:27.780Z,99012.47
2022-07-29T10:17:57.922Z,99001.19
2022-07-29T10:20:26.818Z,99007.50
2022-07-29T10:22:55.557Z,99001.03
2022-07-29T10:25:26.079Z,98994.25
2022-07-29T10:27:54.594Z,98997.13
2022-07-29T10:30:24.026Z,98992.06
2022-07-29T10:33:02.277Z,98988.03
2022-07-29T10:35:46.228Z,98983.75
2022-07-29T10:38:33.867Z,98980.81
2022-07-29T10:41:32.372Z,98981.81
2022-07-29T10:44:22.908Z,98982.25
2022-07-29T10:46:53.476Z,98979.59
2022-07-29T10:49:25.907Z,98980.22
2022-07-29T10:52:02.147Z,98980.34
2022-07-29T10:54:51.181Z,98981.00
2022-07-29T10:57:25.920Z,98979.75
2022-07-29T11:00:31.448Z,98972.78
2022-07-29T11:03:00.267Z,98971.16
2022-07-29T11:05:32.237Z,98968.19
2022-07-29T11:08:27.764Z,98960.47
2022-07-29T11:11:38.152Z,98958.50
2022-07-29T11:14:10.321Z,98953.56
2022-07-29T11:17:00.903Z,98948.16
2022-07-29T11:19:30.364Z,98936.41
2022-07-29T11:21:59.393Z,98933.56
2022-07-29T11:24:34.938Z,98942.03
2022-07-29T11:27:11.434Z,98931.31
2022-07-29T11:29:51.292Z,98929.78
2022-07-29T11:32:22.710Z,98930.50
2022-07-29T11:35:17.093Z,98933.31
2022-07-29T11:37:52.394Z,98925.88
2022-07-29T11:40:26.183Z,98933.03
2022-07-29T11:42:55.010Z,98922.00
2022-07-29T11:45:43.551Z,98914.81
2022-07-29T11:48:28.432Z,98911.75
2022-07-29T11:51:01.314Z,98911.50
2022-07-29T11:53:32.668Z,98905.09
2022-07-29T11:56:02.455Z,98903.31
2022-07-29T11:58:31.515Z,98908.22
2022-07-29T12:01:04.599Z,98904.34
2022-07-29T12:03:36.016Z,98904.34
2022-07-29T12:06:13.392Z,98890.28
2022-07-29T12:08:45.212Z,98896.66
2022-07-29T12:11:22.620Z,98901.75
2022-07-29T12:13:52.024Z,98897.16
2022-07-29T12:16:26.091Z,98895.13
2022-07-29T12:19:02.256Z,98895.09
2022-07-29T12:21:30.975Z,98894.59
2022-07-29T12:24:05.703Z,98890.44
2022-07-29T12:26:37.923Z,98895.44
2022-07-29T12:29:15.403Z,98888.28
2022-07-29T12:31:48.866Z,98893.75
2022-07-29T12:34:18.296Z,98888.13
2022-07-29T12:36:46.553Z,98889.38
2022-07-29T12:39:18.214Z,98896.78
2022-07-29T12:41:49.452Z,98898.03
2022-07-29T12:44:17.575Z,98894.94
2022-07-29T12:46:47.613Z,98892.38
2022-07-29T12:49:24.112Z,98891.59
2022-07-29T12:51:52.375Z,98891.25
2022-07-29T12:54:21.864Z,98885.72
2022-07-29T12:57:00.754Z,98883.34
2022-07-29T12:59:28.800Z,98873.34
2022-07-29T13:01:57.423Z,98885.59
2022-07-29T13:04:29.833Z,98888.56
2022-07-29T13:07:04.652Z,98885.66
2022-07-29T13:09:42.374Z,98876.81
2022-07-29T13:12:11.343Z,98875.69
2022-07-29T13:14:40.924Z,98870.44
2022-07-29T13:17:11.201Z,98878.63
2022-07-29T13:19:41.501Z,98885.91
2022-07-29T13:22:10.584Z,98888.91
2022-07-29T13:24:53.020Z,98892.09
2022-07-29T13:27:22.235Z,98894.16
2022-07-29T13:29:52.395Z,98893.72
2022-07-29T13:32:27.718Z,98878.59
2022-07-29T13:34:57.183Z,98881.28
2022-07-29T13:37:25.281Z,98875.22
2022-07-29T13:39:55.301Z,98876.06
2022-07-29T13:42:23.980Z,98883.84
2022-07-29T13:44:52.751Z,98892.41
2022-07-29T13:47:21.302Z,98895.00
2022-07-29T13:49:49.481Z,98902.56
2022-07-29T13:52:18.248Z,98902.16
2022-07-29T13:54:46.405Z,98902.50
2022-07-29T13:57:16.088Z,98905.50
2022-07-29T13:59:44.463Z,98899.88
2022-07-29T14:02:15.742Z,98897.66
2022-07-29T14:04:43.962Z,98903.78
2022-07-29T14:07:12.127Z,98909.91
2022-07-29T14:09:44.809Z,98910.41
2022-07-29T14:12:13.494Z,98905.69
2022-07-29T14:14:43.018Z,98904.56
2022-07-29T14:17:11.771Z,98927.75
2022-07-29T14:19:40.208Z,98931.75
2022-07-29T14:22:11.009Z,98927.38
2022-07-29T14:24:39.853Z,98934.25
2022-07-29T14:27:08.641Z,98926.97
2022-07-29T14:29:38.317Z,98926.06
2022-07-29T14:32:09.104Z,98923.63
2022-07-29T14:34:37.677Z,98928.22
2022-07-29T14:37:07.240Z,98932.31
2022-07-29T14:39:42.621Z,98930.06
2022-07-29T14:42:12.651Z,98932.06
2022-07-29T14:44:41.455Z,98944.22
2022-07-29T14:47:11.339Z,98936.38
2022-07-29T14:49:39.418Z,98947.56
2022-07-29T14:52:07.603Z,98938.03
2022-07-29T14:54:35.845Z,98935.28
2022-07-29T14:57:03.852Z,98925.66
2022-07-29T14:59:31.925Z,98924.44
2022-07-29T15:02:00.260Z,98920.75
2022-07-29T15:04:30.013Z,98917.25
2022-07-29T15:06:58.832Z,98917.63
2022-07-29T15:09:26.879Z,98912.19
2022-07-29T15:11:55.218Z,98904.59
2022-07-29T15:14:23.601Z,98902.78
2022-07-29T15:16:52.700Z,98912.47
2022-07-29T15:19:21.214Z,98907.09
2022-07-29T15:21:50.819Z,98905.41
2022-07-29T15:24:19.728Z,98903.06
2022-07-29T15:26:48.336Z,98905.53
2022-07-29T15:29:17.065Z,98890.97
2022-07-29T15:31:46.453Z,98889.06
2022-07-29T15:34:14.706Z,98899.13
2022-07-29T15:36:52.174Z,98880.50
2022-07-29T15:39:23.292Z,98877.41
2022-07-29T15:41:51.584Z,98864.50
2022-07-29T15:44:19.835Z,98863.88
2022-07-29T15:47:04.923Z,98868.81
2022-07-29T15:49:48.405Z,98877.16
2022-07-29T15:52:26.251Z,98868.47
2022-07-29T15:54:56.906Z,98869.03
2022-07-29T15:57:25.805Z,98864.53
2022-07-29T15:59:53.867Z,98866.78
2022-07-29T16:02:22.014Z,98865.47
2022-07-29T16:04:50.414Z,98860.47
2022-07-29T16:07:18.786Z,98862.59
2022-07-29T16:09:52.381Z,98862.41
2022-07-29T16:12:22.535Z,98867.44
2022-07-29T16:14:51.365Z,98875.03
2022-07-29T16:17:19.908Z,98876.75
2022-07-29T16:19:48.373Z,98870.53
2022-07-29T16:22:16.673Z,98859.84
2022-07-29T16:24:44.800Z,98856.63
2022-07-29T16:27:12.974Z,98867.75
2022-07-29T16:29:42.464Z,98869.88
2022-07-29T16:32:10.819Z,98872.53
2022-07-29T16:34:38.876Z,98861.63
2022-07-29T16:37:06.918Z,98865.63
2022-07-29T16:39:35.000Z,98866.53
2022-07-29T16:42:05.434Z,98871.53
2022-07-29T16:44:34.881Z,98877.44
2022-07-29T16:47:05.609Z,98880.53
2022-07-29T16:49:33.709Z,98888.03
2022-07-29T16:52:01.891Z,98894.56
2022-07-29T16:54:29.934Z,98893.75
2022-07-29T16:57:00.657Z,98894.47
2022-07-29T16:59:29.410Z,98904.41
2022-07-29T17:01:57.936Z,98921.31
2022-07-29T17:04:28.832Z,98914.16
2022-07-29T17:06:57.186Z,98921.63
2022-07-29T17:09:25.574Z,98930.63
2022-07-29T17:11:55.016Z,98931.56
2022-07-29T17:19:40.263Z,98926.47
2022-07-29T17:22:15.594Z,98932.88
2022-07-29T17:24:47.515Z,98936.16
2022-07-29T17:27:15.861Z,98933.44
2022-07-29T17:29:46.089Z,98937.59
2022-07-29T17:32:14.539Z,98932.56
2022-07-29T17:37:47.755Z,98930.53
2022-07-29T17:42:53.927Z,98938.41
2022-07-29T17:45:22.340Z,98942.47
2022-07-29T17:47:50.468Z,98945.44
2022-07-29T17:50:18.403Z,98951.84
2022-07-29T17:55:32.157Z,98952.47
2022-07-29T17:58:00.476Z,98949.44
2022-07-29T18:00:28.992Z,98951.97
2022-07-29T18:02:57.028Z,98953.69
2022-07-29T18:05:25.264Z,98958.16
2022-07-29T18:07:53.510Z,98954.25
2022-07-29T18:10:21.567Z,98969.34
2022-07-29T18:12:51.062Z,98963.09
2022-07-29T18:15:19.142Z,98960.69
2022-07-29T18:17:56.497Z,98965.44
2022-07-29T18:20:25.859Z,98976.44
2022-07-29T18:22:54.015Z,98971.69
2022-07-29T18:25:22.293Z,98967.72
2022-07-29T18:27:51.710Z,98964.53
2022-07-29T18:30:20.397Z,98968.53
2022-07-29T18:33:18.258Z,98968.56
2022-07-29T18:35:37.606Z,98973.31
2022-07-29T18:38:06.169Z,98972.53
2022-07-29T18:40:34.532Z,98970.56
2022-07-29T18:43:04.004Z,98971.75
2022-07-29T18:45:32.799Z,98968.63
2022-07-29T18:48:00.906Z,98965.50
2022-07-29T18:50:29.960Z,98972.72
2022-07-29T18:52:59.102Z,98970.50
2022-07-29T18:58:53.827Z,98980.94
2022-07-29T19:01:23.529Z,98979.50
2022-07-29T19:04:00.170Z,98979.56
2022-07-29T19:06:28.300Z,98974.47
2022-07-29T19:08:56.545Z,98974.53
2022-07-29T19:11:24.918Z,98977.34
2022-07-29T19:14:18.537Z,98980.59
2022-07-29T19:17:10.110Z,98985.69
2022-07-29T19:19:40.593Z,98988.44
2022-07-29T19:22:08.735Z,98995.56
2022-07-29T19:24:37.166Z,98997.09
2022-07-29T19:27:05.560Z,98998.66
2022-07-29T19:29:34.990Z,98996.34
2022-07-29T19:32:03.061Z,99011.38
2022-07-29T19:34:31.571Z,99003.47
2022-07-29T19:42:48.490Z,99012.16
2022-07-29T19:45:16.907Z,99001.13
2022-07-29T19:47:45.174Z,99002.31
2022-07-29T19:50:13.546Z,98998.34
2022-07-29T19:52:41.662Z,99000.34
2022-07-29T19:55:10.818Z,98988.94
2022-07-29T19:57:41.219Z,98991.69
2022-07-29T20:00:13.477Z,98994.88
2022-07-29T20:02:42.963Z,98994.50
2022-07-29T20:05:11.512Z,98996.94
2022-07-29T20:07:40.354Z,98989.94
2022-07-29T20:10:10.269Z,98987.69
2022-07-29T20:12:38.703Z,98992.06
2022-07-29T20:15:08.509Z,98989.34
2022-07-29T20:17:40.809Z,98988.63
2022-07-29T20:20:10.542Z,98980.41
2022-07-29T20:22:39.137Z,98992.69
2022-07-29T20:25:09.805Z,98997.44
2022-07-29T20:27:40.460Z,99001.00
2022-07-29T20:30:13.302Z,99000.34
2022-07-29T20:32:43.052Z,98986.19
2022-07-29T20:35:12.149Z,98993.34
2022-07-29T20:37:55.681Z,98993.41
2022-07-29T20:40:25.599Z,98990.31
2022-07-29T20:42:53.769Z,98991.56
2022-07-29T20:45:21.990Z,98989.69
2022-07-29T20:47:52.099Z,98999.22
2022-07-29T20:50:23.777Z,98992.59
2022-07-29T20:52:53.125Z,99000.91
2022-07-29T20:55:21.453Z,99006.81
2022-07-29T20:57:49.598Z,99013.16
2022-07-29T21:00:18.100Z,99001.75
2022-07-29T21:02:46.192Z,98995.44
2022-07-29T21:05:15.941Z,98996.22
2022-07-29T21:07:44.011Z,98996.66
2022-07-29T21:10:12.199Z,99004.91
2022-07-29T21:12:40.280Z,99006.06
2022-07-29T21:15:13.422Z,99000.53
2022-07-29T21:17:46.874Z,99002.50
2022-07-29T21:20:17.699Z,99002.50
2022-07-29T21:22:46.112Z,99000.19
2022-07-29T21:25:14.382Z,98993.09
2022-07-29T21:28:00.010Z,99005.28
2022-07-29T21:30:28.043Z,98996.22
2022-07-29T21:32:56.436Z,99000.97
2022-07-29T21:35:35.631Z,98998.59
2022-07-29T21:38:16.339Z,99008.09
2022-07-29T21:40:44.882Z,99002.97
2022-07-29T21:43:13.157Z,99004.16
2022-07-29T21:45:41.472Z,99012.47
2022-07-29T21:48:09.572Z,99011.72
2022-07-29T21:50:39.038Z,99016.47
2022-07-29T21:53:07.225Z,99006.66
2022-07-29T21:55:38.436Z,99000.41
2022-07-29T21:58:07.019Z,99003.59
2022-07-29T22:00:35.489Z,99001.66
2022-07-29T22:03:04.543Z,98985.53
2022-07-29T22:05:33.022Z,98990.28
2022-07-29T22:08:02.730Z,98991.88
2022-07-29T22:10:31.692Z,98980.88
2022-07-29T22:13:01.581Z,98978.91
2022-07-29T22:15:30.031Z,98982.09
2022-07-29T22:17:58.341Z,98983.69
2022-07-29T22:20:26.598Z,98984.09
2022-07-29T22:22:55.165Z,98983.72
2022-07-29T22:25:24.616Z,98973.50
2022-07-29T22:27:52.656Z,98967.59
2022-07-29T22:30:20.837Z,98966.84
2022-07-29T22:32:49.685Z,98970.00
2022-07-29T22:35:17.829Z,98965.31
2022-07-29T22:37:45.909Z,98972.03
2022-07-29T22:40:14.209Z,98972.47
2022-07-29T22:42:43.541Z,98971.72
2022-07-29T22:45:12.178Z,98968.22
2022-07-29T22:47:47.973Z,98967.81
2022-07-29T22:50:16.912Z,98969.41
2022-07-29T22:52:44.991Z,98972.97
2022-07-29T22:55:13.041Z,98974.94
2022-07-29T22:57:41.109Z,98972.19
2022-07-29T23:00:11.897Z,98974.16
2022-07-29T23:02:41.382Z,98961.56
2022-07-29T23:05:10.427Z,98963.94
2022-07-29T23:07:38.654Z,98959.59
2022-07-29T23:10:07.660Z,98959.59
2022-07-29T23:12:35.718Z,98955.28
2022-07-29T23:15:04.528Z,98954.13
2022-07-29T23:17:36.672Z,98951.75
2022-07-29T23:20:07.416Z,98958.84
2022-07-29T23:22:55.809Z,98957.25
2022-07-29T23:25:23.952Z,98958.06
2022-07-29T23:27:52.002Z,98964.75
2022-07-29T23:30:20.258Z,98962.41
2022-07-29T23:35:15.125Z,98951.38
2022-07-29T23:37:43.322Z,98951.41
2022-07-29T23:40:14.789Z,98953.00
2022-07-29T23:42:43.828Z,98951.47
2022-07-29T23:45:15.518Z,98949.88
2022-07-29T23:47:44.573Z,98953.03
2022-07-29T23:52:49.338Z,98954.63
2022-07-29T23:55:38.787Z,98955.78
2022-07-29T23:58:05.503Z,98954.22
